createdAt,value
2022-11-16T00:00:04.269Z,5.35
2022-11-16T00:02:32.719Z,7.55
2022-11-16T00:04:59.459Z,4.20
2022-11-16T00:07:26.111Z,6.53
2022-11-16T00:09:52.919Z,4.73
2022-11-16T00:12:19.724Z,5.07
2022-11-16T00:14:46.372Z,5.70
2022-11-16T00:17:13.001Z,5.63
2022-11-16T00:19:39.564Z,5.57
2022-11-16T00:22:06.165Z,7.07
2022-11-16T00:24:32.778Z,6.15
2022-11-16T00:26:59.423Z,8.80
2022-11-16T00:29:27.203Z,3.90
2022-11-16T00:31:54.762Z,4.72
2022-11-16T00:34:22.805Z,3.90
2022-11-16T00:36:50.147Z,6.82
2022-11-16T00:39:18.311Z,7.20
2022-11-16T00:41:45.761Z,5.75
2022-11-16T00:44:12.447Z,7.85
2022-11-16T00:46:39.448Z,6.10
2022-11-16T00:49:06.397Z,6.13
2022-11-16T00:51:34.011Z,6.35
2022-11-16T00:54:01.032Z,4.35
2022-11-16T00:56:27.603Z,6.85
2022-11-16T00:58:54.203Z,6.70
2022-11-16T01:01:21.170Z,5.05
2022-11-16T01:03:47.854Z,8.85
2022-11-16T01:06:15.862Z,7.30
2022-11-16T01:08:44.328Z,8.18
2022-11-16T01:11:15.360Z,6.27
2022-11-16T01:13:42.117Z,7.13
2022-11-16T01:16:08.897Z,5.43
2022-11-16T01:18:35.750Z,6.50
2022-11-16T01:21:06.169Z,10.15
2022-11-16T01:23:32.945Z,8.93
2022-11-16T01:26:00.093Z,9.95
2022-11-16T01:28:28.457Z,6.43
2022-11-16T01:30:55.480Z,13.50
2022-11-16T01:33:22.302Z,13.07
2022-11-16T01:35:48.889Z,9.93
2022-11-16T01:38:16.154Z,7.28
2022-11-16T01:40:42.906Z,14.32
2022-11-16T01:43:23.938Z,10.85
2022-11-16T01:45:50.626Z,12.75
2022-11-16T01:48:24.806Z,10.10
2022-11-16T01:50:52.159Z,13.13
2022-11-16T01:53:19.550Z,11.75
2022-11-16T01:55:47.546Z,14.43
2022-11-16T01:58:18.361Z,12.35
2022-11-16T02:00:45.132Z,12.67
2022-11-16T02:03:11.932Z,11.32
2022-11-16T02:05:50.419Z,12.75
2022-11-16T02:08:38.892Z,11.18
2022-11-16T02:11:25.379Z,11.18
2022-11-16T02:14:01.128Z,12.23
2022-11-16T02:16:47.816Z,7.88
2022-11-16T02:19:17.241Z,7.18
2022-11-16T02:22:25.441Z,12.88
2022-11-16T02:25:30.353Z,12.52
2022-11-16T02:28:22.996Z,11.93
2022-11-16T02:30:52.690Z,9.23
2022-11-16T02:33:25.690Z,10.77
2022-11-16T02:35:56.334Z,12.05
2022-11-16T02:38:27.673Z,9.32
2022-11-16T02:41:01.753Z,10.90
2022-11-16T02:43:36.174Z,10.77
2022-11-16T02:46:08.613Z,12.43
2022-11-16T02:48:43.637Z,11.15
2022-11-16T02:51:11.190Z,13.05
2022-11-16T02:53:50.803Z,12.67
2022-11-16T02:56:17.974Z,13.20
2022-11-16T02:58:45.307Z,12.40
2022-11-16T03:01:23.337Z,12.68
2022-11-16T03:03:55.849Z,12.30
2022-11-16T03:06:30.319Z,9.77
2022-11-16T03:09:02.996Z,10.13
2022-11-16T03:11:31.499Z,11.88
2022-11-16T03:14:12.098Z,11.85
2022-11-16T03:16:43.202Z,10.13
2022-11-16T03:19:14.870Z,11.47
2022-11-16T03:21:43.659Z,11.68
2022-11-16T03:24:10.544Z,12.75
2022-11-16T03:26:55.029Z,12.43
2022-11-16T03:29:46.723Z,14.40
2022-11-16T03:32:25.513Z,13.93
2022-11-16T03:35:16.656Z,13.77
2022-11-16T03:37:45.679Z,13.48
2022-11-16T03:40:13.092Z,6.40
2022-11-16T03:42:41.897Z,11.68
2022-11-16T03:45:09.070Z,10.77
2022-11-16T03:47:35.588Z,12.13
2022-11-16T03:50:02.163Z,11.65
2022-11-16T03:52:28.839Z,12.27
2022-11-16T03:54:55.339Z,10.75
2022-11-16T03:57:21.866Z,10.47
2022-11-16T03:59:48.552Z,11.70
2022-11-16T04:02:15.065Z,10.65
2022-11-16T04:04:41.553Z,11.35
2022-11-16T04:07:08.708Z,12.15
2022-11-16T04:09:35.375Z,12.17
2022-11-16T04:12:01.933Z,13.52
2022-11-16T04:14:28.787Z,13.20
2022-11-16T04:16:55.349Z,11.93
2022-11-16T04:19:21.855Z,13.27
2022-11-16T04:21:54.339Z,8.53
2022-11-16T04:24:25.173Z,11.73
2022-11-16T04:26:56.094Z,14.25
2022-11-16T04:29:23.129Z,12.88
2022-11-16T04:31:50.017Z,11.82
2022-11-16T04:34:16.580Z,13.30
2022-11-16T04:36:43.173Z,11.68
2022-11-16T04:39:09.683Z,11.90
2022-11-16T04:41:36.508Z,12.15
2022-11-16T04:44:03.155Z,11.65
2022-11-16T04:46:29.646Z,10.30
2022-11-16T04:48:56.148Z,11.50
2022-11-16T04:51:22.792Z,9.85
2022-11-16T04:53:49.428Z,11.43
2022-11-16T04:56:15.938Z,15.00
2022-11-16T04:58:42.581Z,10.13
2022-11-16T05:01:09.181Z,9.80
2022-11-16T05:03:35.793Z,12.52
2022-11-16T05:06:02.427Z,9.45
2022-11-16T05:08:29.588Z,10.98
2022-11-16T05:10:56.177Z,13.60
2022-11-16T05:13:22.779Z,11.38
2022-11-16T05:15:49.278Z,13.50
2022-11-16T05:18:15.799Z,13.18
2022-11-16T05:20:42.451Z,12.65
2022-11-16T05:23:08.961Z,12.83
2022-11-16T05:25:37.061Z,11.88
2022-11-16T05:28:04.196Z,12.75
2022-11-16T05:30:30.686Z,11.57
2022-11-16T05:32:57.199Z,13.23
2022-11-16T05:35:23.799Z,12.83
2022-11-16T05:37:50.308Z,8.52
2022-11-16T05:40:16.872Z,10.25
2022-11-16T05:42:43.496Z,11.82
2022-11-16T05:45:10.366Z,8.55
2022-11-16T05:47:36.936Z,14.93
2022-11-16T05:50:03.879Z,14.10
2022-11-16T05:52:30.394Z,12.13
2022-11-16T05:54:56.925Z,14.10
2022-11-16T05:57:23.499Z,14.25
2022-11-16T05:59:49.999Z,11.77
2022-11-16T06:02:16.535Z,10.35
2022-11-16T06:04:43.251Z,13.25
2022-11-16T06:07:09.836Z,13.50
2022-11-16T06:09:36.748Z,14.23
2022-11-16T06:12:03.881Z,11.53
2022-11-16T06:14:30.480Z,11.57
2022-11-16T06:16:57.030Z,13.23
2022-11-16T06:19:26.008Z,12.90
2022-11-16T06:21:56.325Z,13.30
2022-11-16T06:24:22.803Z,13.47
2022-11-16T06:26:49.432Z,12.95
2022-11-16T06:29:15.979Z,11.95
2022-11-16T06:31:42.554Z,12.25
2022-11-16T06:34:09.463Z,10.88
2022-11-16T06:36:36.025Z,10.63
2022-11-16T06:39:02.612Z,12.48
2022-11-16T06:41:29.323Z,14.68
2022-11-16T06:43:55.958Z,12.43
2022-11-16T06:46:22.541Z,10.73
2022-11-16T06:48:49.189Z,13.87
2022-11-16T06:51:15.929Z,9.40
2022-11-16T06:53:43.256Z,10.90
2022-11-16T06:56:14.007Z,15.02
2022-11-16T06:58:42.715Z,9.35
2022-11-16T07:01:11.627Z,13.43
2022-11-16T07:03:38.569Z,12.73
2022-11-16T07:06:10.371Z,10.50
2022-11-16T07:08:37.554Z,14.48
2022-11-16T07:11:06.573Z,9.82
2022-11-16T07:13:34.310Z,16.27
2022-11-16T07:16:07.220Z,14.38
2022-11-16T07:18:36.291Z,16.40
2022-11-16T07:21:13.624Z,16.73
2022-11-16T07:23:40.889Z,14.43
2022-11-16T07:26:08.939Z,15.87
2022-11-16T07:28:36.004Z,11.93
2022-11-16T07:31:12.215Z,14.63
2022-11-16T07:33:39.432Z,12.25
2022-11-16T07:36:07.152Z,12.85
2022-11-16T07:38:34.642Z,13.77
2022-11-16T07:41:06.371Z,13.85
2022-11-16T07:43:34.373Z,13.73
2022-11-16T07:48:57.579Z,13.43
2022-11-16T07:51:24.311Z,12.97
2022-11-16T07:53:55.101Z,13.07
2022-11-16T07:56:22.100Z,10.73
2022-11-16T07:58:48.672Z,12.35
2022-11-16T08:01:17.044Z,11.80
2022-11-16T08:03:45.592Z,10.93
2022-11-16T08:06:17.755Z,10.65
2022-11-16T08:08:44.477Z,9.48
2022-11-16T08:11:12.176Z,9.80
2022-11-16T08:13:39.990Z,10.98
2022-11-16T08:16:15.049Z,13.20
2022-11-16T08:18:42.597Z,10.93
2022-11-16T08:21:11.706Z,12.25
2022-11-16T08:23:38.233Z,8.93
2022-11-16T08:26:10.320Z,10.50
2022-11-16T08:28:37.948Z,11.60
2022-11-16T08:31:13.018Z,13.82
2022-11-16T08:33:39.720Z,11.38
2022-11-16T08:36:13.773Z,9.60
2022-11-16T08:38:40.862Z,9.98
2022-11-16T08:41:07.778Z,12.57
2022-11-16T08:43:34.888Z,15.15
2022-11-16T08:46:01.575Z,14.15
2022-11-16T08:48:28.118Z,16.52
2022-11-16T08:51:16.358Z,15.18
2022-11-16T08:53:41.308Z,12.70
2022-11-16T08:56:10.330Z,13.93
2022-11-16T08:58:36.902Z,12.88
2022-11-16T09:01:11.936Z,12.20
2022-11-16T09:03:38.813Z,10.80
2022-11-16T09:06:06.553Z,9.37
2022-11-16T09:08:33.776Z,11.75
2022-11-16T09:11:04.586Z,8.57
2022-11-16T09:13:31.191Z,11.20
2022-11-16T09:15:59.618Z,12.52
2022-11-16T09:18:27.310Z,12.60
2022-11-16T09:20:54.212Z,12.57
2022-11-16T09:23:25.266Z,10.05
2022-11-16T09:25:52.623Z,12.82
2022-11-16T09:28:20.855Z,11.40
2022-11-16T09:30:50.597Z,13.40
2022-11-16T09:33:17.186Z,11.48
2022-11-16T09:35:43.700Z,12.68
2022-11-16T09:38:19.106Z,12.32
2022-11-16T09:40:50.758Z,9.70
2022-11-16T09:43:37.399Z,13.37
2022-11-16T09:46:35.425Z,8.60
2022-11-16T09:49:17.260Z,9.73
2022-11-16T09:51:48.375Z,10.57
2022-11-16T09:54:20.079Z,11.48
2022-11-16T09:56:51.694Z,8.50
2022-11-16T09:59:24.715Z,10.60
2022-11-16T10:02:45.393Z,16.02
2022-11-16T10:05:44.904Z,11.73
2022-11-16T10:08:41.188Z,13.73
2022-11-16T10:11:26.882Z,11.47
2022-11-16T10:14:24.389Z,7.28
2022-11-16T10:17:03.497Z,11.98
2022-11-16T10:19:46.200Z,7.85
2022-11-16T10:22:33.844Z,14.70
2022-11-16T10:25:11.790Z,12.53
2022-11-16T10:27:48.760Z,13.15
2022-11-16T10:30:17.524Z,11.45
2022-11-16T10:32:53.889Z,11.25
2022-11-16T10:35:42.897Z,11.45
2022-11-16T10:38:22.856Z,12.10
2022-11-16T10:40:57.567Z,12.57
2022-11-16T10:43:28.450Z,11.90
2022-11-16T10:46:22.486Z,14.10
2022-11-16T10:48:58.049Z,11.82
2022-11-16T10:51:24.521Z,9.97
2022-11-16T10:53:51.219Z,10.52
2022-11-16T10:56:35.559Z,9.88
2022-11-16T10:59:10.293Z,11.73
2022-11-16T11:01:44.805Z,11.20
2022-11-16T11:04:26.166Z,10.93
2022-11-16T11:06:57.005Z,11.88
2022-11-16T11:09:25.977Z,8.23
2022-11-16T11:12:03.854Z,8.30
2022-11-16T11:14:30.451Z,9.20
2022-11-16T11:17:11.821Z,8.10
2022-11-16T11:19:38.339Z,10.77
2022-11-16T11:22:04.863Z,7.28
2022-11-16T11:24:47.241Z,8.77
2022-11-16T11:27:20.774Z,8.10
2022-11-16T11:29:52.475Z,8.10
2022-11-16T11:32:24.231Z,8.55
2022-11-16T11:34:54.080Z,7.60
2022-11-16T11:37:27.513Z,7.57
2022-11-16T11:40:20.078Z,8.40
2022-11-16T11:42:54.708Z,7.97
2022-11-16T11:45:35.255Z,8.48
2022-11-16T11:48:03.416Z,6.97
2022-11-16T11:50:35.719Z,8.65
2022-11-16T11:53:07.760Z,8.88
2022-11-16T11:55:34.950Z,8.00
2022-11-16T11:58:04.371Z,8.20
2022-11-16T12:00:55.677Z,10.35
2022-11-16T12:03:31.463Z,7.80
2022-11-16T12:06:11.461Z,9.10
2022-11-16T12:09:13.056Z,8.27
2022-11-16T12:11:56.561Z,7.40
2022-11-16T12:14:35.186Z,7.32
2022-11-16T12:17:27.955Z,7.03
2022-11-16T12:20:06.815Z,8.30
2022-11-16T12:23:07.214Z,8.17
2022-11-16T12:25:48.769Z,7.78
2022-11-16T12:28:33.805Z,7.65
2022-11-16T12:31:52.955Z,7.10
2022-11-16T12:34:51.792Z,6.68
2022-11-16T12:37:23.866Z,7.70
2022-11-16T12:39:56.590Z,6.45
2022-11-16T12:42:53.922Z,8.30
2022-11-16T12:45:39.606Z,8.18
2022-11-16T12:48:40.395Z,6.03
2022-11-16T12:51:16.497Z,7.33
2022-11-16T12:54:04.679Z,6.63
2022-11-16T12:56:37.263Z,6.70
2022-11-16T12:59:27.203Z,7.32
2022-11-16T13:02:12.618Z,6.95
2022-11-16T13:04:44.993Z,5.63
2022-11-16T13:07:38.870Z,7.20
2022-11-16T13:10:17.431Z,5.90
2022-11-16T13:12:48.454Z,8.52
2022-11-16T13:15:19.446Z,9.55
2022-11-16T13:18:15.432Z,10.00
2022-11-16T13:21:04.726Z,11.68
2022-11-16T13:23:31.639Z,8.18
2022-11-16T13:26:07.458Z,7.50
2022-11-16T13:28:42.463Z,7.68
2022-11-16T13:31:14.994Z,4.10
2022-11-16T13:34:03.274Z,6.70
2022-11-16T13:36:35.851Z,6.55
2022-11-16T13:39:04.161Z,6.55
2022-11-16T13:41:39.695Z,5.22
2022-11-16T13:44:18.239Z,5.10
2022-11-16T13:46:56.821Z,4.78
2022-11-16T13:49:28.126Z,5.70
2022-11-16T13:52:35.653Z,6.32
2022-11-16T13:55:10.503Z,5.50
2022-11-16T13:57:37.413Z,5.50
2022-11-16T14:00:03.870Z,5.65
2022-11-16T14:02:40.616Z,4.65
2022-11-16T14:05:12.915Z,6.50
2022-11-16T14:07:44.417Z,5.72
2022-11-16T14:10:32.375Z,4.60
2022-11-16T14:13:01.232Z,4.80
2022-11-16T14:15:31.039Z,4.78
2022-11-16T14:18:09.738Z,4.93
2022-11-16T14:20:56.399Z,5.25
2022-11-16T14:23:53.741Z,4.53
2022-11-16T14:26:38.595Z,3.95
2022-11-16T14:29:12.040Z,4.40
2022-11-16T14:31:51.882Z,3.45
2022-11-16T14:34:41.257Z,4.18
2022-11-16T14:37:27.210Z,4.27
2022-11-16T14:40:00.677Z,4.60
2022-11-16T14:42:48.136Z,3.70
2022-11-16T14:45:24.405Z,3.45
2022-11-16T14:47:51.227Z,3.47
2022-11-16T14:50:22.751Z,3.87
2022-11-16T14:52:52.993Z,4.50
2022-11-16T14:55:24.845Z,4.30
2022-11-16T14:58:20.868Z,4.32
2022-11-16T15:00:59.324Z,2.45
2022-11-16T15:03:31.520Z,4.63
2022-11-16T15:06:02.764Z,3.72
2022-11-16T15:08:52.136Z,3.45
2022-11-16T15:11:29.118Z,4.20
2022-11-16T15:13:55.904Z,4.30
2022-11-16T15:16:22.423Z,3.53
2022-11-16T15:19:02.403Z,2.33
2022-11-16T15:21:28.952Z,2.20
2022-11-16T15:24:15.865Z,2.75
2022-11-16T15:26:43.187Z,3.22
2022-11-16T15:29:16.754Z,3.47
2022-11-16T15:31:43.451Z,2.38
2022-11-16T15:34:17.412Z,2.47
2022-11-16T15:36:44.187Z,3.22
2022-11-16T15:39:20.626Z,2.70
2022-11-16T15:41:47.447Z,3.70
2022-11-16T15:44:17.791Z,3.53
2022-11-16T15:46:48.356Z,3.55
2022-11-16T15:49:33.902Z,3.72
2022-11-16T15:52:01.148Z,3.20
2022-11-16T15:54:28.642Z,3.33
2022-11-16T15:56:57.941Z,4.63
2022-11-16T15:59:35.740Z,2.25
2022-11-16T16:02:02.786Z,3.60
2022-11-16T16:04:29.849Z,3.33
2022-11-16T16:06:58.829Z,3.53
2022-11-16T16:09:25.502Z,2.78
2022-11-16T16:11:53.983Z,3.45
2022-11-16T16:14:30.788Z,1.83
2022-11-16T16:16:59.104Z,2.35
2022-11-16T16:19:43.139Z,2.50
2022-11-16T16:22:26.195Z,3.20
2022-11-16T16:24:53.453Z,3.28
2022-11-16T16:27:22.256Z,3.70
2022-11-16T16:29:51.007Z,3.67
2022-11-16T16:32:31.783Z,2.87
2022-11-16T16:35:00.797Z,4.50
2022-11-16T16:37:29.719Z,3.60
2022-11-16T16:39:56.773Z,3.15
2022-11-16T16:42:23.627Z,2.80
2022-11-16T16:44:50.935Z,3.30
2022-11-16T16:47:18.673Z,3.38
2022-11-16T16:49:45.249Z,1.50
2022-11-16T16:52:12.984Z,3.30
2022-11-16T16:54:40.550Z,3.85
2022-11-16T16:57:11.809Z,2.03
2022-11-16T16:59:38.357Z,2.10
2022-11-16T17:02:05.525Z,2.67
2022-11-16T17:04:32.844Z,2.70
2022-11-16T17:06:59.398Z,2.50
2022-11-16T17:09:26.091Z,2.83
2022-11-16T17:11:52.643Z,2.28
2022-11-16T17:14:19.145Z,3.08
2022-11-16T17:16:45.690Z,1.67
2022-11-16T17:19:12.204Z,3.22
2022-11-16T17:21:38.745Z,2.30
2022-11-16T17:24:06.509Z,1.77
2022-11-16T17:26:33.105Z,3.10
2022-11-16T17:28:59.649Z,1.08
2022-11-16T17:31:26.558Z,2.05
2022-11-16T17:33:53.196Z,2.60
2022-11-16T17:36:20.205Z,1.10
2022-11-16T17:38:47.429Z,2.33
2022-11-16T17:41:17.011Z,2.15
2022-11-16T17:43:45.368Z,1.48
2022-11-16T17:46:17.567Z,1.70
2022-11-16T17:48:46.160Z,2.60
2022-11-16T17:51:15.686Z,2.20
2022-11-16T17:53:43.455Z,2.25
2022-11-16T17:56:14.811Z,2.15
2022-11-16T17:58:41.429Z,1.77
2022-11-16T18:01:08.531Z,2.00
2022-11-16T18:03:39.010Z,2.20
2022-11-16T18:06:17.525Z,2.22
2022-11-16T18:08:45.527Z,2.13
2022-11-16T18:11:12.852Z,1.60
2022-11-16T18:13:39.806Z,3.00
2022-11-16T18:16:17.793Z,1.20
2022-11-16T18:18:45.902Z,1.38
2022-11-16T18:21:18.886Z,1.98
2022-11-16T18:23:47.653Z,1.20
2022-11-16T18:26:18.141Z,1.27
2022-11-16T18:28:45.135Z,1.33
2022-11-16T18:31:14.001Z,2.10
2022-11-16T18:33:40.567Z,2.28
2022-11-16T18:36:08.334Z,1.80
2022-11-16T18:38:35.600Z,1.02
2022-11-16T18:41:26.318Z,1.42
2022-11-16T18:43:55.301Z,1.90
2022-11-16T18:46:39.860Z,2.00
2022-11-16T18:49:06.408Z,2.20
2022-11-16T18:51:32.898Z,2.33
2022-11-16T18:53:59.472Z,1.45
2022-11-16T18:56:26.443Z,2.33
2022-11-16T18:58:53.677Z,0.90
2022-11-16T19:01:22.919Z,1.40
2022-11-16T19:03:50.707Z,1.92
2022-11-16T19:06:18.004Z,1.08
2022-11-16T19:08:50.486Z,1.63
2022-11-16T19:11:20.858Z,1.95
2022-11-16T19:13:52.906Z,1.57
2022-11-16T19:16:19.629Z,2.17
2022-11-16T19:18:46.987Z,2.30
2022-11-16T19:21:15.084Z,2.28
2022-11-16T19:23:46.948Z,3.03
2022-11-16T19:26:15.183Z,2.40
2022-11-16T19:28:44.347Z,2.85
2022-11-16T19:31:21.285Z,2.05
2022-11-16T19:33:47.915Z,1.98
2022-11-16T19:36:19.164Z,2.03
2022-11-16T19:38:47.760Z,2.43
2022-11-16T19:41:16.074Z,2.30
2022-11-16T19:43:42.966Z,2.65
2022-11-16T19:46:11.359Z,1.35
2022-11-16T19:48:38.364Z,1.95
2022-11-16T19:51:06.104Z,1.60
2022-11-16T19:53:33.050Z,1.27
2022-11-16T19:55:59.883Z,0.90
2022-11-16T19:58:26.514Z,1.73
2022-11-16T20:00:53.185Z,1.70
2022-11-16T20:03:19.759Z,2.60
2022-11-16T20:05:46.311Z,1.33
2022-11-16T20:08:13.777Z,2.25
2022-11-16T20:10:40.471Z,2.35
2022-11-16T20:13:07.030Z,2.05
2022-11-16T20:15:33.882Z,3.30
2022-11-16T20:18:00.381Z,2.80
2022-11-16T20:20:26.970Z,2.00
2022-11-16T20:22:53.553Z,2.15
2022-11-16T20:25:20.038Z,2.65
2022-11-16T20:27:46.823Z,2.40
2022-11-16T20:30:13.798Z,1.67
2022-11-16T20:32:40.338Z,2.13
2022-11-16T20:35:07.060Z,2.70
2022-11-16T20:37:33.696Z,2.70
2022-11-16T20:40:00.270Z,1.90
2022-11-16T20:42:26.850Z,3.17
2022-11-16T20:44:53.495Z,3.35
2022-11-16T20:47:20.067Z,2.90
2022-11-16T20:49:46.565Z,1.98
2022-11-16T20:52:13.156Z,1.80
2022-11-16T20:54:39.639Z,2.47
2022-11-16T20:57:06.127Z,1.70
2022-11-16T20:59:32.762Z,1.60
2022-11-16T21:01:59.289Z,2.33
2022-11-16T21:04:25.819Z,2.67
2022-11-16T21:06:52.629Z,1.73
2022-11-16T21:09:19.416Z,1.45
2022-11-16T21:11:46.084Z,2.22
2022-11-16T21:14:12.650Z,2.88
2022-11-16T21:16:39.935Z,2.70
2022-11-16T21:19:07.085Z,2.67
2022-11-16T21:21:34.179Z,2.08
2022-11-16T21:24:01.001Z,2.70
2022-11-16T21:26:32.292Z,1.88
2022-11-16T21:29:00.053Z,2.40
2022-11-16T21:31:32.175Z,1.48
2022-11-16T21:33:59.599Z,2.67
2022-11-16T21:36:27.945Z,1.67
2022-11-16T21:38:54.778Z,2.28
2022-11-16T21:41:22.916Z,1.63
2022-11-16T21:43:49.565Z,3.00
2022-11-16T21:46:26.525Z,3.20
2022-11-16T21:48:54.323Z,2.92
2022-11-16T21:51:22.493Z,2.83
2022-11-16T21:53:49.078Z,3.00
2022-11-16T21:56:21.142Z,3.00
2022-11-16T21:58:48.071Z,3.42
2022-11-16T22:01:14.689Z,3.15
2022-11-16T22:03:42.022Z,3.42
2022-11-16T22:06:14.088Z,2.77
2022-11-16T22:08:41.375Z,2.55
2022-11-16T22:11:09.126Z,2.65
2022-11-16T22:13:36.875Z,2.63
2022-11-16T22:16:10.616Z,2.90
2022-11-16T22:18:37.198Z,1.33
2022-11-16T22:21:03.870Z,2.15
2022-11-16T22:23:31.176Z,2.70
2022-11-16T22:26:09.216Z,2.60
2022-11-16T22:28:37.075Z,2.40
2022-11-16T22:31:06.033Z,3.00
2022-11-16T22:33:33.624Z,3.25
2022-11-16T22:36:00.546Z,2.25
2022-11-16T22:38:27.209Z,2.10
2022-11-16T22:40:55.881Z,2.17
2022-11-16T22:43:25.925Z,3.50
2022-11-16T22:46:05.507Z,1.08
2022-11-16T22:48:33.800Z,3.30
2022-11-16T22:51:23.529Z,3.60
2022-11-16T22:53:58.928Z,3.22
2022-11-16T22:56:26.736Z,3.90
2022-11-16T22:58:53.380Z,2.63
2022-11-16T23:01:20.590Z,3.03
2022-11-16T23:03:47.731Z,2.53
2022-11-16T23:06:14.959Z,2.40
2022-11-16T23:08:41.888Z,2.60
2022-11-16T23:11:12.753Z,3.22
2022-11-16T23:13:39.321Z,2.80
2022-11-16T23:16:07.091Z,3.40
2022-11-16T23:18:33.582Z,2.63
2022-11-16T23:21:00.116Z,3.50
2022-11-16T23:23:33.053Z,3.75
2022-11-16T23:25:59.746Z,3.60
2022-11-16T23:28:26.246Z,2.40
2022-11-16T23:30:53.144Z,2.97
2022-11-16T23:33:19.716Z,3.23
2022-11-16T23:35:46.300Z,2.35
2022-11-16T23:38:12.912Z,3.40
2022-11-16T23:40:40.177Z,2.92
2022-11-16T23:43:09.837Z,3.97
2022-11-16T23:45:36.699Z,3.10
2022-11-16T23:48:03.261Z,2.78
2022-11-16T23:50:29.851Z,4.30
2022-11-16T23:52:56.422Z,3.17
2022-11-16T23:55:22.944Z,1.95
2022-11-16T23:57:50.104Z,3.97
